Time;durP1;ratioP1;P1;durP2;ratioP2;P2;SDS_P1;SDS_P2;PMS_P1;PMS_P2;Temp;Humidity;BMP_temperature;BMP_pressure;BME280_temperature;BME280_humidity;BME280_pressure;Samples;Min_cycle;Max_cycle;Signal;HPM_P1;HPM_P2
2021/12/07 00:00:39;;;;;;;5.07;4.50;;;5.00;99.90;;;;;;2071843;28;20092;-72
2021/12/07 00:01:40;;;;;;;4.78;4.38;;;5.00;99.90;;;;;;2071458;28;20135;-72
2021/12/07 00:02:41;;;;;;;4.80;4.40;;;5.10;99.90;;;;;;2070653;28;20071;-71
2021/12/07 00:03:42;;;;;;;5.25;4.80;;;5.10;99.90;;;;;;2070841;28;20164;-71
2021/12/07 00:04:43;;;;;;;4.57;4.20;;;5.10;99.90;;;;;;2071535;28;20221;-72
2021/12/07 00:05:44;;;;;;;4.30;4.00;;;5.10;99.90;;;;;;2073587;28;20144;-72
2021/12/07 00:06:44;;;;;;;3.95;3.55;;;5.10;99.90;;;;;;2071478;28;20501;-72
2021/12/07 00:07:45;;;;;;;4.50;4.10;;;5.20;99.90;;;;;;2071425;28;20025;-72
2021/12/07 00:08:49;;;;;;;4.45;3.83;;;5.20;99.90;;;;;;2070642;28;20099;-72
2021/12/07 00:09:50;;;;;;;4.10;3.70;;;5.20;99.90;;;;;;2078694;28;20029;-72
2021/12/07 00:10:51;;;;;;;4.55;3.85;;;5.20;99.90;;;;;;2085325;28;20028;-72
2021/12/07 00:11:52;;;;;;;3.83;3.53;;;5.20;99.90;;;;;;2071069;28;20026;-72
2021/12/07 00:12:53;;;;;;;4.22;3.83;;;5.20;99.90;;;;;;2071198;28;20036;-72
2021/12/07 00:13:56;;;;;;;4.22;3.70;;;5.20;99.90;;;;;;2071374;28;20203;-72
2021/12/07 00:15:01;;;;;;;3.60;3.30;;;5.20;99.90;;;;;;2071584;28;20502;-73
2021/12/07 00:16:08;;;;;;;3.42;3.13;;;5.30;99.90;;;;;;2071240;28;20028;-72
2021/12/07 00:17:09;;;;;;;3.40;3.10;;;5.20;99.90;;;;;;2071455;28;20079;-72
2021/12/07 00:18:10;;;;;;;3.65;3.35;;;5.20;99.90;;;;;;2071452;28;20034;-72
2021/12/07 00:19:11;;;;;;;2.97;2.78;;;5.20;99.90;;;;;;2071534;28;20472;-72
2021/12/07 00:20:16;;;;;;;2.95;2.40;;;5.20;99.90;;;;;;2070455;28;20109;-72
2021/12/07 00:21:18;;;;;;;2.88;2.67;;;5.30;99.90;;;;;;2071538;28;20113;-72
2021/12/07 00:22:19;;;;;;;2.80;2.60;;;5.30;99.90;;;;;;2070816;28;20462;-72
2021/12/07 00:23:20;;;;;;;2.92;2.65;;;5.30;99.90;;;;;;2071117;28;20033;-72
2021/12/07 00:24:21;;;;;;;2.88;2.53;;;5.30;99.90;;;;;;2070898;28;20104;-72
2021/12/07 00:25:23;;;;;;;2.67;2.47;;;5.30;99.90;;;;;;2070559;28;20025;-72
2021/12/07 00:26:23;;;;;;;2.28;2.17;;;5.30;99.90;;;;;;2070728;28;20098;-72
2021/12/07 00:27:24;;;;;;;2.60;2.40;;;5.30;99.90;;;;;;2071481;28;20045;-72
2021/12/07 00:28:25;;;;;;;2.63;2.42;;;5.30;99.90;;;;;;2071292;28;20022;-72
2021/12/07 00:29:27;;;;;;;2.72;2.53;;;5.30;99.90;;;;;;2070720;28;20675;-72
2021/12/07 00:30:32;;;;;;;2.70;2.50;;;5.30;99.90;;;;;;2071612;28;20382;-72
2021/12/07 00:31:42;;;;;;;2.25;2.05;;;5.30;99.90;;;;;;2071313;28;20030;-72
2021/12/07 00:32:51;;;;;;;2.45;2.25;;;5.30;99.90;;;;;;2071338;28;20387;-72
2021/12/07 00:34:10;;;;;;;2.13;2.03;;;5.30;99.90;;;;;;2071761;28;20026;-71
2021/12/07 00:36:32;;;;;;;3.28;2.88;;;5.30;99.90;;;;;;2072837;28;20026;-72
2021/12/07 00:37:35;;;;;;;2.00;1.90;;;5.30;99.90;;;;;;2072181;28;20034;-72
2021/12/07 00:38:36;;;;;;;2.03;1.90;;;5.30;99.90;;;;;;2069937;28;20025;-71
2021/12/07 00:39:37;;;;;;;2.45;2.03;;;5.30;99.90;;;;;;2072504;28;20033;-72
2021/12/07 00:40:39;;;;;;;2.20;2.10;;;5.30;99.90;;;;;;2072204;28;20478;-72
2021/12/07 00:41:40;;;;;;;2.47;2.28;;;5.30;99.90;;;;;;2071972;28;20034;-72
2021/12/07 00:42:41;;;;;;;2.15;2.05;;;5.30;99.90;;;;;;2073051;28;20526;-71
2021/12/07 00:43:41;;;;;;;1.98;1.88;;;5.30;99.90;;;;;;2072841;28;20095;-72
2021/12/07 00:44:42;;;;;;;2.17;2.03;;;5.30;99.90;;;;;;2072798;28;20149;-72
2021/12/07 00:45:45;;;;;;;2.00;1.90;;;5.30;99.90;;;;;;2073156;28;20022;-72
2021/12/07 00:46:47;;;;;;;2.33;2.13;;;5.30;99.90;;;;;;2073154;28;20397;-72
2021/12/07 00:47:49;;;;;;;2.42;2.00;;;5.30;99.90;;;;;;2072937;28;20026;-72
2021/12/07 00:48:50;;;;;;;1.95;1.85;;;5.30;99.90;;;;;;2072153;28;20029;-72
2021/12/07 00:49:50;;;;;;;2.00;1.90;;;5.40;99.90;;;;;;2071834;28;20057;-72
2021/12/07 00:50:51;;;;;;;2.25;2.15;;;5.40;99.90;;;;;;2072819;28;20037;-72
2021/12/07 00:51:51;;;;;;;2.13;2.03;;;5.40;99.90;;;;;;2073067;28;20053;-72
2021/12/07 00:52:52;;;;;;;2.42;2.22;;;5.40;99.90;;;;;;2072977;28;20042;-72
2021/12/07 00:53:53;;;;;;;2.35;2.15;;;5.40;99.90;;;;;;2071992;28;21004;-72
2021/12/07 00:54:54;;;;;;;1.70;1.60;;;5.40;99.90;;;;;;2076496;28;20049;-72
2021/12/07 00:55:59;;;;;;;3.10;2.20;;;5.40;99.90;;;;;;2072685;28;20382;-72
2021/12/07 00:57:02;;;;;;;1.95;1.85;;;5.40;99.90;;;;;;2072244;28;20041;-71
2021/12/07 00:58:12;;;;;;;2.30;2.10;;;5.40;99.90;;;;;;2072263;28;20033;-72
2021/12/07 00:59:13;;;;;;;1.95;1.85;;;5.40;99.90;;;;;;2072185;28;20062;-72
2021/12/07 01:00:16;;;;;;;2.10;1.90;;;5.40;99.90;;;;;;2071620;28;20647;-72
2021/12/07 01:01:18;;;;;;;1.67;1.58;;;5.40;99.90;;;;;;2072470;28;20034;-73
2021/12/07 01:02:19;;;;;;;2.38;2.17;;;5.40;99.90;;;;;;2080079;28;20029;-72
2021/12/07 01:03:20;;;;;;;2.33;2.05;;;5.40;99.90;;;;;;2073042;28;20536;-72
2021/12/07 01:04:21;;;;;;;2.38;2.10;;;5.40;99.90;;;;;;2072369;28;20041;-72
2021/12/07 01:05:28;;;;;;;2.15;1.98;;;5.40;99.90;;;;;;2074720;28;20029;-72
2021/12/07 01:06:34;;;;;;;2.00;1.80;;;5.40;99.90;;;;;;2072695;28;20026;-72
2021/12/07 01:08:59;;;;;;;2.10;2.00;;;5.40;99.90;;;;;;2072233;28;20037;-72
2021/12/07 01:24:43;;;;;;;;;;;5.40;99.90;;;;;;2072805;28;20058;-72
2021/12/07 01:25:43;;;;;;;2.60;2.45;;;5.30;99.90;;;;;;2076305;28;19916;-72
2021/12/07 01:26:46;;;;;;;3.10;2.90;;;5.30;99.90;;;;;;2074923;28;20030;-72
2021/12/07 01:27:49;;;;;;;3.10;2.90;;;5.30;99.90;;;;;;2077332;28;20022;-72
2021/12/07 01:28:50;;;;;;;3.20;3.00;;;5.30;99.90;;;;;;2072761;28;20045;-72
2021/12/07 01:30:08;;;;;;;3.50;3.20;;;5.30;99.90;;;;;;2068687;28;20037;-72
2021/12/07 01:31:20;;;;;;;3.67;3.05;;;5.40;99.90;;;;;;2070187;28;20072;-72
2021/12/07 01:33:23;;;;;;;3.65;3.35;;;5.30;99.90;;;;;;2072566;28;20030;-72
2021/12/07 01:36:50;;;;;;;3.97;3.67;;;5.30;99.90;;;;;;2071319;28;20026;-72
2021/12/07 01:42:53;;;;;;;4.40;4.00;;;5.20;99.90;;;;;;2072414;28;20037;-72
2021/12/07 01:47:28;;;;;;;4.40;4.05;;;5.10;99.90;;;;;;2072455;28;20026;-72
2021/12/07 01:52:12;;;;;;;5.03;4.63;;;5.10;99.90;;;;;;2072553;28;20030;-72
2021/12/07 01:59:33;;;;;;;5.70;5.20;;;5.10;99.90;;;;;;2072416;28;20037;-72
2021/12/07 01:59:57;;;;;;;5.55;5.15;;;5.10;99.90;;;;;;2071680;28;20113;-72
2021/12/07 02:01:00;;;;;;;5.03;4.63;;;5.10;99.90;;;;;;2072431;28;20049;-72
2021/12/07 02:02:12;;;;;;;5.63;5.13;;;5.10;99.90;;;;;;2072687;28;20104;-72
2021/12/07 02:03:13;;;;;;;7.70;5.97;;;5.10;99.90;;;;;;2072543;28;20489;-72
2021/12/07 02:04:13;;;;;;;5.10;4.60;;;5.10;99.90;;;;;;2074240;28;20367;-71
2021/12/07 02:05:15;;;;;;;5.82;5.32;;;5.10;99.90;;;;;;2078465;28;20030;-72
2021/12/07 02:06:15;;;;;;;5.78;5.28;;;5.10;99.90;;;;;;2071735;28;20061;-72
2021/12/07 02:07:16;;;;;;;6.10;5.60;;;5.10;99.90;;;;;;2071541;28;20034;-72
2021/12/07 02:08:17;;;;;;;5.90;5.40;;;5.10;99.90;;;;;;2072220;28;20106;-72
2021/12/07 02:09:17;;;;;;;6.30;5.80;;;5.10;99.90;;;;;;2072208;28;20133;-72
2021/12/07 02:10:23;;;;;;;6.00;5.50;;;5.10;99.90;;;;;;2071545;28;20538;-72
2021/12/07 02:11:23;;;;;;;6.13;5.53;;;5.10;99.90;;;;;;2071968;28;20145;-72
2021/12/07 02:12:25;;;;;;;7.13;6.10;;;5.10;99.90;;;;;;2071947;28;20049;-72
2021/12/07 02:14:30;;;;;;;6.75;6.15;;;5.10;99.90;;;;;;2072544;28;20084;-72
2021/12/07 02:15:32;;;;;;;6.70;6.07;;;5.10;99.90;;;;;;2072238;28;20014;-72
2021/12/07 02:16:32;;;;;;;6.03;5.57;;;5.10;99.90;;;;;;2072170;28;20630;-72
2021/12/07 02:17:34;;;;;;;5.72;5.25;;;5.10;99.90;;;;;;2072377;28;20362;-72
2021/12/07 02:18:35;;;;;;;5.15;4.68;;;5.00;99.90;;;;;;2072026;28;20469;-72
2021/12/07 02:19:36;;;;;;;6.30;5.70;;;5.10;99.90;;;;;;2071105;28;20022;-72
2021/12/07 02:20:37;;;;;;;6.72;6.13;;;5.10;99.90;;;;;;2072039;28;20018;-72
2021/12/07 02:21:37;;;;;;;6.03;5.57;;;5.10;99.90;;;;;;2071976;28;20029;-72
2021/12/07 02:22:38;;;;;;;5.90;5.40;;;5.10;99.90;;;;;;2072140;28;20104;-72
2021/12/07 02:23:39;;;;;;;7.15;6.55;;;5.10;99.90;;;;;;2072012;28;20033;-72
2021/12/07 02:24:40;;;;;;;7.05;6.35;;;5.10;99.90;;;;;;2072151;28;20109;-72
2021/12/07 02:25:40;;;;;;;6.97;6.38;;;5.10;99.90;;;;;;2072387;28;20482;-71
2021/12/07 02:26:41;;;;;;;6.80;6.20;;;5.10;99.90;;;;;;2071227;28;20121;-72
2021/12/07 02:27:43;;;;;;;7.10;6.40;;;5.10;99.90;;;;;;2071526;28;20054;-72
2021/12/07 02:28:44;;;;;;;7.07;6.55;;;5.10;99.90;;;;;;2072105;28;20026;-72
2021/12/07 02:29:45;;;;;;;7.10;6.40;;;5.10;99.90;;;;;;2071523;28;20014;-72
2021/12/07 02:30:46;;;;;;;6.80;6.20;;;5.10;99.90;;;;;;2071898;28;20026;-72
2021/12/07 02:31:48;;;;;;;7.40;6.70;;;5.10;99.90;;;;;;2072188;28;20058;-72
2021/12/07 02:32:51;;;;;;;7.97;7.18;;;5.10;99.90;;;;;;2072171;28;20360;-72
2021/12/07 02:33:54;;;;;;;7.28;6.57;;;5.10;99.90;;;;;;2072035;28;20022;-72
2021/12/07 02:34:57;;;;;;;7.60;6.82;;;5.10;99.90;;;;;;2067713;28;20026;-72
2021/12/07 02:35:58;;;;;;;7.10;6.47;;;5.10;99.90;;;;;;2071118;28;20030;-72
2021/12/07 02:36:59;;;;;;;6.05;5.55;;;5.10;99.90;;;;;;2071675;28;20034;-72
2021/12/07 02:38:00;;;;;;;8.40;7.57;;;5.10;99.90;;;;;;2072110;28;20036;-72
2021/12/07 02:39:01;;;;;;;7.78;6.97;;;5.10;99.90;;;;;;2079074;28;20048;-72
2021/12/07 02:40:04;;;;;;;7.90;7.20;;;5.10;99.90;;;;;;2079220;28;20199;-72
2021/12/07 02:41:06;;;;;;;8.07;7.25;;;5.10;99.90;;;;;;2071592;28;20066;-71
2021/12/07 02:42:07;;;;;;;6.13;5.53;;;5.10;99.90;;;;;;2072093;28;20018;-72
2021/12/07 02:43:07;;;;;;;7.38;6.78;;;5.10;99.90;;;;;;2071324;28;20037;-72
2021/12/07 02:44:09;;;;;;;8.73;7.47;;;5.10;99.90;;;;;;2071291;28;20489;-72
2021/12/07 02:45:10;;;;;;;8.90;8.00;;;5.10;99.90;;;;;;2071817;28;20680;-72
2021/12/07 02:46:11;;;;;;;8.20;7.40;;;5.10;99.90;;;;;;2071949;28;20029;-72
2021/12/07 02:47:12;;;;;;;9.02;8.05;;;5.10;99.90;;;;;;2072029;28;20033;-72
2021/12/07 02:48:12;;;;;;;9.18;8.38;;;5.10;99.90;;;;;;2071133;28;20113;-72
2021/12/07 02:49:13;;;;;;;9.18;8.27;;;5.10;99.90;;;;;;2071355;28;20752;-72
2021/12/07 02:50:16;;;;;;;10.55;8.40;;;5.10;99.90;;;;;;2070690;28;20079;-72
2021/12/07 02:51:17;;;;;;;8.52;7.72;;;5.10;99.90;;;;;;2071256;28;20033;-72
2021/12/07 02:52:18;;;;;;;9.50;8.43;;;5.10;99.90;;;;;;2071965;28;20034;-72
2021/12/07 02:53:22;;;;;;;8.73;7.85;;;5.10;99.90;;;;;;2072221;28;20468;-72
2021/12/07 02:54:22;;;;;;;10.13;9.13;;;5.10;99.90;;;;;;2079257;28;20022;-72
2021/12/07 02:55:23;;;;;;;11.38;9.77;;;5.10;99.90;;;;;;2079196;28;20474;-72
2021/12/07 02:56:24;;;;;;;11.02;9.93;;;5.10;99.90;;;;;;2063356;28;20022;-72
2021/12/07 02:57:25;;;;;;;10.18;9.18;;;5.10;99.90;;;;;;2063740;28;20538;-72
2021/12/07 02:58:26;;;;;;;10.93;9.82;;;5.10;99.90;;;;;;2063994;28;21225;-72
2021/12/07 02:59:27;;;;;;;10.60;9.60;;;5.10;99.90;;;;;;2063995;28;20117;-72
2021/12/07 03:00:36;;;;;;;11.02;9.77;;;5.00;99.90;;;;;;2063388;28;20019;-72
2021/12/07 03:01:44;;;;;;;12.43;10.48;;;5.00;99.90;;;;;;2064417;28;20029;-72
2021/12/07 03:02:57;;;;;;;11.60;10.15;;;5.00;99.90;;;;;;2063389;28;20089;-71
2021/12/07 03:04:15;;;;;;;11.85;9.20;;;5.00;99.90;;;;;;2070629;28;20029;-71
2021/12/07 03:08:14;;;;;;;11.63;9.65;;;5.00;99.90;;;;;;2072148;28;20018;-72
2021/12/07 03:26:25;;;;;;;20.30;15.65;;;4.90;99.90;;;;;;2071626;28;20470;-72
2021/12/07 03:27:26;;;;;;;22.00;18.33;;;4.90;99.90;;;;;;2071576;28;20354;-73
2021/12/07 03:28:28;;;;;;;23.20;18.23;;;4.90;99.90;;;;;;2071450;28;20033;-72
2021/12/07 03:29:29;;;;;;;21.02;18.73;;;4.90;99.90;;;;;;2071713;28;20076;-72
2021/12/07 03:30:29;;;;;;;20.55;18.35;;;4.90;99.90;;;;;;2071446;28;20120;-72
2021/12/07 03:31:30;;;;;;;21.60;18.67;;;4.90;99.90;;;;;;2071504;28;20474;-72
2021/12/07 03:32:30;;;;;;;19.50;17.58;;;4.90;99.90;;;;;;2072081;28;20018;-72
2021/12/07 03:33:31;;;;;;;20.92;18.73;;;4.90;99.90;;;;;;2071568;28;20026;-72
2021/12/07 03:34:32;;;;;;;20.58;18.13;;;4.90;99.90;;;;;;2071893;28;20014;-72
2021/12/07 03:35:33;;;;;;;25.58;19.60;;;4.90;99.90;;;;;;2071639;28;20049;-72
2021/12/07 03:36:34;;;;;;;25.63;19.27;;;4.90;99.90;;;;;;2071844;28;20052;-72
2021/12/07 03:37:34;;;;;;;21.73;19.35;;;4.90;99.90;;;;;;2071198;28;20026;-72
2021/12/07 03:38:35;;;;;;;21.13;18.92;;;4.90;99.90;;;;;;2071334;28;20056;-72
2021/12/07 03:39:36;;;;;;;25.48;20.48;;;5.00;99.90;;;;;;2071388;28;20073;-72
2021/12/07 03:40:37;;;;;;;22.25;19.35;;;5.00;99.90;;;;;;2071181;28;20021;-72
2021/12/07 03:41:38;;;;;;;23.83;20.05;;;5.00;99.90;;;;;;2071745;28;20014;-72
2021/12/07 03:42:39;;;;;;;23.00;19.15;;;5.00;99.90;;;;;;2071497;28;20034;-72
2021/12/07 03:43:41;;;;;;;25.27;20.98;;;5.10;99.90;;;;;;2071363;28;20033;-72
2021/12/07 03:44:41;;;;;;;25.25;20.48;;;5.10;99.90;;;;;;2071100;28;20029;-72
2021/12/07 03:45:43;;;;;;;22.73;19.90;;;5.10;99.90;;;;;;2070879;28;20026;-72
2021/12/07 03:46:44;;;;;;;23.27;18.98;;;5.10;99.90;;;;;;2071588;28;20030;-72
2021/12/07 03:47:44;;;;;;;21.75;19.45;;;5.10;99.90;;;;;;2071346;28;20026;-72
2021/12/07 03:48:45;;;;;;;28.38;20.83;;;5.10;99.90;;;;;;2071901;28;20116;-71
2021/12/07 03:49:45;;;;;;;22.45;20.13;;;5.10;99.90;;;;;;2070183;28;20045;-72
2021/12/07 03:50:46;;;;;;;26.00;21.23;;;5.10;99.90;;;;;;2070869;28;20053;-72
2021/12/07 03:51:47;;;;;;;25.45;20.20;;;5.10;99.90;;;;;;2071669;28;20026;-72
2021/12/07 03:52:49;;;;;;;25.50;20.30;;;5.20;99.90;;;;;;2071311;28;20022;-72
2021/12/07 03:53:49;;;;;;;24.70;20.75;;;5.20;99.90;;;;;;2071911;28;20624;-72
2021/12/07 03:54:50;;;;;;;26.65;21.58;;;5.20;99.90;;;;;;2071425;28;20025;-72
2021/12/07 03:55:51;;;;;;;24.48;20.65;;;5.20;99.90;;;;;;2071793;28;20034;-72
2021/12/07 03:56:52;;;;;;;27.40;21.98;;;5.20;99.90;;;;;;2071460;28;20029;-72
2021/12/07 03:57:53;;;;;;;23.80;21.30;;;5.20;99.90;;;;;;2071528;28;20895;-72
2021/12/07 03:58:53;;;;;;;28.02;22.50;;;5.20;99.90;;;;;;2071405;28;20140;-72
2021/12/07 03:59:54;;;;;;;24.25;21.65;;;5.20;99.90;;;;;;2071133;28;20045;-72
2021/12/07 04:00:55;;;;;;;26.55;21.73;;;5.20;99.90;;;;;;2071508;28;20021;-72
2021/12/07 04:01:55;;;;;;;25.25;21.77;;;5.30;99.90;;;;;;2071514;28;20038;-72
2021/12/07 04:02:58;;;;;;;26.35;22.02;;;5.30;99.90;;;;;;2071548;28;20026;-72
2021/12/07 04:04:02;;;;;;;24.75;21.70;;;5.30;99.90;;;;;;2070936;28;20429;-72
2021/12/07 04:05:09;;;;;;;25.10;22.30;;;5.30;99.90;;;;;;2070449;28;20026;-72
2021/12/07 04:06:09;;;;;;;24.17;21.58;;;5.30;99.90;;;;;;2072021;28;20060;-72
2021/12/07 04:07:10;;;;;;;24.98;20.98;;;5.30;99.90;;;;;;2071238;28;20132;-72
2021/12/07 04:08:17;;;;;;;26.65;21.67;;;5.40;99.90;;;;;;2071588;28;20052;-72
2021/12/07 04:09:17;;;;;;;27.75;22.25;;;5.30;99.90;;;;;;2071325;28;20925;-72
2021/12/07 04:10:20;;;;;;;29.80;23.00;;;5.30;99.90;;;;;;2068052;28;20429;-72
2021/12/07 04:11:21;;;;;;;28.85;21.92;;;5.30;99.90;;;;;;2071068;28;20022;-72
2021/12/07 04:12:21;;;;;;;32.97;24.83;;;5.40;99.90;;;;;;2071250;28;20022;-72
2021/12/07 04:13:23;;;;;;;29.33;23.27;;;5.40;99.90;;;;;;2070839;28;20564;-72
2021/12/07 04:14:24;;;;;;;28.63;23.65;;;5.40;99.90;;;;;;2071349;28;20556;-72
2021/12/07 04:15:24;;;;;;;30.48;24.02;;;5.40;99.90;;;;;;2071235;28;20413;-72
2021/12/07 04:16:25;;;;;;;31.98;24.10;;;5.40;99.90;;;;;;2073329;28;20529;-72
2021/12/07 04:17:26;;;;;;;33.25;24.13;;;5.40;99.90;;;;;;2074226;28;20029;-72
2021/12/07 04:18:28;;;;;;;33.00;23.60;;;5.40;99.90;;;;;;2070911;28;20065;-72
2021/12/07 04:19:28;;;;;;;34.25;23.50;;;5.40;99.90;;;;;;2070577;28;20371;-72
2021/12/07 04:20:29;;;;;;;34.03;23.90;;;5.40;99.90;;;;;;2070852;28;20173;-72
2021/12/07 04:21:30;;;;;;;31.02;23.83;;;5.40;99.90;;;;;;2071276;28;20018;-72
2021/12/07 04:22:31;;;;;;;34.47;23.77;;;5.40;99.90;;;;;;2071527;28;20052;-72
2021/12/07 04:23:36;;;;;;;31.27;23.35;;;5.40;99.90;;;;;;2071270;28;20018;-72
2021/12/07 04:24:36;;;;;;;31.05;23.48;;;5.40;99.90;;;;;;2068422;28;20056;-72
2021/12/07 04:25:37;;;;;;;33.38;24.90;;;5.40;99.90;;;;;;2072179;28;20025;-72
2021/12/07 04:26:39;;;;;;;32.70;23.38;;;5.40;99.90;;;;;;2075907;28;20497;-72
2021/12/07 04:27:40;;;;;;;35.78;25.10;;;5.40;99.90;;;;;;2071282;28;20018;-72
2021/12/07 04:28:42;;;;;;;35.05;23.23;;;5.40;99.90;;;;;;2071480;28;20075;-72
2021/12/07 04:29:42;;;;;;;33.53;23.25;;;5.40;99.90;;;;;;2070979;28;20108;-72
2021/12/07 04:30:44;;;;;;;35.25;23.77;;;5.40;99.90;;;;;;2070357;28;20030;-72
2021/12/07 04:31:44;;;;;;;28.75;22.27;;;5.40;99.90;;;;;;2070665;28;20065;-72
2021/12/07 04:32:45;;;;;;;34.50;22.85;;;5.40;99.90;;;;;;2071262;28;20788;-72
2021/12/07 04:33:46;;;;;;;30.45;22.80;;;5.40;99.90;;;;;;2070980;28;20033;-72
2021/12/07 04:34:46;;;;;;;34.50;22.50;;;5.50;99.90;;;;;;2070886;28;20022;-72
2021/12/07 04:35:49;;;;;;;34.72;22.30;;;5.50;99.90;;;;;;2075939;28;20405;-72
2021/12/07 04:36:50;;;;;;;29.42;20.42;;;5.50;99.90;;;;;;2078126;28;20465;-72
2021/12/07 04:37:51;;;;;;;33.80;20.80;;;5.50;99.90;;;;;;2072353;28;20445;-72
2021/12/07 04:38:52;;;;;;;33.67;22.02;;;5.50;99.90;;;;;;2071484;28;20073;-72
2021/12/07 04:39:53;;;;;;;31.58;21.75;;;5.50;99.90;;;;;;2062865;28;20042;-72
2021/12/07 04:40:54;;;;;;;33.30;21.42;;;5.50;99.90;;;;;;2070406;28;20026;-72
2021/12/07 04:41:54;;;;;;;32.42;21.38;;;5.50;99.90;;;;;;2070982;28;20026;-72
2021/12/07 04:42:55;;;;;;;29.27;20.67;;;5.50;99.90;;;;;;2071309;28;20105;-72
2021/12/07 04:43:56;;;;;;;29.20;21.13;;;5.50;99.90;;;;;;2071309;28;20037;-72
2021/12/07 04:45:00;;;;;;;32.25;20.92;;;5.50;99.90;;;;;;2068477;28;20117;-72
2021/12/07 04:47:11;;;;;;;31.70;22.08;;;5.50;99.90;;;;;;2074731;28;20040;-72
2021/12/07 04:49:44;;;;;;;28.60;20.42;;;5.50;99.90;;;;;;2067604;28;20081;-72
2021/12/07 04:58:00;;;;;;;30.58;21.88;;;5.60;99.90;;;;;;2071672;28;20033;-72
2021/12/07 04:59:01;;;;;;;31.90;21.98;;;5.60;99.90;;;;;;2070933;28;20443;-72
2021/12/07 05:00:08;;;;;;;27.75;20.95;;;5.70;99.90;;;;;;2070002;28;20026;-72
2021/12/07 05:01:11;;;;;;;27.77;20.60;;;5.70;99.90;;;;;;2068105;28;20572;-72
2021/12/07 05:02:12;;;;;;;28.55;20.38;;;5.60;99.90;;;;;;2071449;28;20030;-72
2021/12/07 05:03:14;;;;;;;27.02;19.73;;;5.70;99.90;;;;;;2071015;28;20118;-72
2021/12/07 05:04:20;;;;;;;34.40;21.30;;;5.70;99.90;;;;;;2070579;28;20025;-72
2021/12/07 05:05:25;;;;;;;26.23;19.75;;;5.70;99.90;;;;;;2070719;28;20122;-72
2021/12/07 05:06:29;;;;;;;26.73;21.15;;;5.70;99.90;;;;;;2071318;28;20386;-72
2021/12/07 05:07:36;;;;;;;26.95;20.02;;;5.70;99.90;;;;;;2071093;28;20382;-72
2021/12/07 05:08:42;;;;;;;28.30;20.88;;;5.70;99.90;;;;;;2070399;28;20014;-72
2021/12/07 05:14:18;;;;;;;30.33;19.90;;;5.80;99.90;;;;;;2063447;28;20038;-72
2021/12/07 05:15:28;;;;;;;24.42;19.67;;;5.80;99.90;;;;;;2070201;28;20105;-72
2021/12/07 05:16:53;;;;;;;;;;;5.80;99.90;;;;;;2070892;28;20096;-72
2021/12/07 05:24:22;;;;;;;32.08;20.00;;;5.70;99.90;;;;;;2063493;28;20530;-72
2021/12/07 05:26:05;;;;;;;29.05;20.20;;;5.70;99.90;;;;;;2070876;28;20038;-72
2021/12/07 05:37:49;;;;;;;28.00;17.65;;;5.70;99.90;;;;;;2070711;28;20389;-72
2021/12/07 05:38:50;;;;;;;28.27;16.55;;;5.70;99.90;;;;;;2069516;28;20037;-72
2021/12/07 05:39:51;;;;;;;25.27;16.65;;;5.70;99.90;;;;;;2072122;28;20473;-72
2021/12/07 05:40:52;;;;;;;26.83;17.08;;;5.70;99.90;;;;;;2070753;28;20030;-72
2021/12/07 05:41:53;;;;;;;24.15;16.67;;;5.70;99.90;;;;;;2071706;28;20064;-72
2021/12/07 05:42:55;;;;;;;23.80;15.82;;;5.70;99.90;;;;;;2070968;28;20052;-72
2021/12/07 05:43:56;;;;;;;26.75;16.30;;;5.70;99.90;;;;;;2066707;28;20041;-72
2021/12/07 05:44:56;;;;;;;25.33;16.73;;;5.70;99.90;;;;;;2071181;28;20028;-72
2021/12/07 05:45:57;;;;;;;30.50;17.20;;;5.70;99.90;;;;;;2071278;28;20375;-72
2021/12/07 05:46:58;;;;;;;27.25;16.05;;;5.70;99.90;;;;;;2074042;28;20026;-72
2021/12/07 05:48:00;;;;;;;29.52;16.27;;;5.80;99.90;;;;;;2067878;28;20081;-72
2021/12/07 05:49:01;;;;;;;27.27;15.85;;;5.80;99.90;;;;;;2065913;28;20042;-72
2021/12/07 05:50:03;;;;;;;27.80;15.93;;;5.80;99.90;;;;;;2071487;28;20021;-72
2021/12/07 05:51:04;;;;;;;25.88;15.43;;;5.80;99.90;;;;;;2071273;28;20470;-72
2021/12/07 05:52:04;;;;;;;26.65;16.17;;;5.80;99.90;;;;;;2069351;28;20410;-72
2021/12/07 05:53:07;;;;;;;29.20;15.88;;;5.80;99.90;;;;;;2067330;28;20439;-72
2021/12/07 05:54:08;;;;;;;30.67;16.65;;;5.80;99.90;;;;;;2068560;28;20026;-72
2021/12/07 05:55:08;;;;;;;31.67;17.75;;;5.80;99.90;;;;;;2072001;28;20018;-72
2021/12/07 05:56:09;;;;;;;25.42;16.27;;;5.80;99.90;;;;;;2071352;28;20026;-72
2021/12/07 05:57:10;;;;;;;28.25;16.77;;;5.80;99.90;;;;;;2065709;28;20030;-72
2021/12/07 05:58:12;;;;;;;28.88;15.52;;;5.80;99.90;;;;;;2069154;28;20026;-72
2021/12/07 05:59:12;;;;;;;26.27;15.45;;;5.80;99.90;;;;;;2068356;28;20395;-72
2021/12/07 06:00:23;;;;;;;30.17;16.08;;;5.80;99.90;;;;;;2069858;28;20022;-72
2021/12/07 06:01:24;;;;;;;26.73;15.88;;;5.80;99.90;;;;;;2065202;28;20360;-72
2021/12/07 06:02:25;;;;;;;26.15;14.85;;;5.80;99.90;;;;;;2067211;28;20169;-72
2021/12/07 06:03:26;;;;;;;27.60;14.75;;;5.80;99.90;;;;;;2067740;28;20085;-72
2021/12/07 06:04:30;;;;;;;23.95;15.50;;;5.80;99.90;;;;;;2067279;28;20905;-72
2021/12/07 06:05:32;;;;;;;24.40;14.48;;;5.80;99.90;;;;;;2065691;28;20030;-72
2021/12/07 06:06:32;;;;;;;26.85;15.70;;;5.80;99.90;;;;;;2065656;28;20018;-72
2021/12/07 06:07:33;;;;;;;23.05;14.30;;;5.80;99.90;;;;;;2068080;28;20029;-72
2021/12/07 06:08:34;;;;;;;28.15;14.68;;;5.80;99.90;;;;;;2068210;28;20029;-72
2021/12/07 06:09:37;;;;;;;26.60;14.02;;;5.80;99.90;;;;;;2065868;28;20128;-72
2021/12/07 06:10:38;;;;;;;27.23;14.23;;;5.80;99.90;;;;;;2068119;28;20068;-72
2021/12/07 06:11:40;;;;;;;29.98;14.88;;;5.80;99.90;;;;;;2068432;28;20022;-72
2021/12/07 06:12:40;;;;;;;27.02;14.65;;;5.80;99.90;;;;;;2065791;28;20023;-72
2021/12/07 06:13:41;;;;;;;29.10;14.10;;;5.90;99.90;;;;;;2067285;28;20522;-72
2021/12/07 06:14:43;;;;;;;32.05;14.65;;;5.90;99.90;;;;;;2067467;28;20022;-72
2021/12/07 06:15:45;;;;;;;31.42;14.57;;;5.90;99.90;;;;;;2069024;28;20060;-72
2021/12/07 06:16:49;;;;;;;25.98;13.38;;;5.90;99.90;;;;;;2067704;28;20457;-72
2021/12/07 06:17:51;;;;;;;24.35;13.23;;;5.90;99.90;;;;;;2065697;28;20510;-71
2021/12/07 06:18:51;;;;;;;25.55;12.30;;;5.90;99.90;;;;;;2066238;28;20032;-72
2021/12/07 06:19:52;;;;;;;20.52;12.30;;;5.90;99.90;;;;;;2068168;28;20032;-72
2021/12/07 06:20:52;;;;;;;24.83;11.70;;;5.90;99.90;;;;;;2067914;28;20447;-72
2021/12/07 06:21:53;;;;;;;27.23;11.95;;;5.90;99.90;;;;;;2065707;28;20030;-72
2021/12/07 06:22:54;;;;;;;23.85;11.55;;;5.90;99.90;;;;;;2073869;28;20083;-72
2021/12/07 06:23:55;;;;;;;25.40;11.35;;;5.90;99.90;;;;;;2084081;28;20029;-72
2021/12/07 06:24:56;;;;;;;30.63;12.70;;;5.90;99.90;;;;;;2070734;28;20774;-72
2021/12/07 06:25:58;;;;;;;24.65;12.13;;;5.90;99.90;;;;;;2068544;28;20029;-72
2021/12/07 06:26:58;;;;;;;27.63;11.40;;;5.90;99.90;;;;;;2068192;28;20041;-72
2021/12/07 06:27:59;;;;;;;22.85;10.80;;;5.90;99.90;;;;;;2069851;28;20027;-72
2021/12/07 06:29:00;;;;;;;29.38;11.50;;;5.90;99.90;;;;;;2068804;28;20104;-72
2021/12/07 06:30:01;;;;;;;25.73;12.18;;;5.90;99.90;;;;;;2068994;28;20385;-71
2021/12/07 06:31:01;;;;;;;31.25;13.18;;;6.00;99.90;;;;;;2067532;28;20462;-71
2021/12/07 06:32:02;;;;;;;22.33;11.85;;;6.00;99.90;;;;;;2070116;28;20634;-72
2021/12/07 06:33:04;;;;;;;28.00;12.63;;;6.00;99.90;;;;;;2062647;28;20026;-72
2021/12/07 06:34:04;;;;;;;25.33;12.32;;;6.00;99.90;;;;;;2070520;28;20022;-72
2021/12/07 06:35:07;;;;;;;28.55;13.75;;;6.00;99.90;;;;;;2070325;28;20045;-72
2021/12/07 06:36:09;;;;;;;21.98;11.90;;;6.00;99.90;;;;;;2070948;28;20108;-72
2021/12/07 06:37:09;;;;;;;29.08;12.02;;;6.00;99.90;;;;;;2066590;28;20030;-72
2021/12/07 06:38:10;;;;;;;29.17;12.43;;;6.00;99.90;;;;;;2067290;28;20113;-72
2021/12/07 06:39:11;;;;;;;27.13;12.93;;;6.00;99.90;;;;;;2065615;28;20027;-72
2021/12/07 06:40:12;;;;;;;27.00;13.27;;;6.00;99.90;;;;;;2070496;28;20022;-72
2021/12/07 06:41:12;;;;;;;26.13;12.88;;;6.00;99.90;;;;;;2067052;28;20025;-72
2021/12/07 06:42:13;;;;;;;28.02;12.32;;;6.00;99.90;;;;;;2067304;28;20061;-72
2021/12/07 06:43:14;;;;;;;25.23;12.55;;;6.00;99.90;;;;;;2067088;28;20100;-72
2021/12/07 06:44:15;;;;;;;26.27;12.38;;;6.00;99.90;;;;;;2068017;28;20030;-72
2021/12/07 06:45:15;;;;;;;27.30;12.27;;;6.00;99.90;;;;;;2067298;28;20037;-72
2021/12/07 06:46:16;;;;;;;33.58;11.65;;;6.00;99.90;;;;;;2067527;28;20112;-72
2021/12/07 06:47:17;;;;;;;23.83;12.25;;;6.00;99.90;;;;;;2067068;28;20113;-72
2021/12/07 06:48:18;;;;;;;24.48;11.25;;;6.00;99.90;;;;;;2068743;28;20474;-71
2021/12/07 06:49:20;;;;;;;32.42;12.02;;;6.10;99.90;;;;;;2068738;28;20475;-71
2021/12/07 06:50:21;;;;;;;27.85;11.43;;;6.10;99.90;;;;;;2067129;28;20060;-72
2021/12/07 06:51:22;;;;;;;27.63;11.52;;;6.00;99.90;;;;;;2065360;28;20030;-72
2021/12/07 06:52:23;;;;;;;21.70;10.15;;;6.10;99.90;;;;;;2065380;28;20029;-72
2021/12/07 06:53:24;;;;;;;25.58;11.48;;;6.10;99.90;;;;;;2065577;28;20025;-71
2021/12/07 06:54:25;;;;;;;23.48;9.55;;;6.10;99.90;;;;;;2072809;28;20048;-72